Time;durP1;ratioP1;P1;durP2;ratioP2;P2;SDS_P1;SDS_P2;PMS_P1;PMS_P2;Temp;Humidity;BMP_temperature;BMP_pressure;BME280_temperature;BME280_humidity;BME280_pressure;Samples;Min_cycle;Max_cycle;Signal;HPM_P1;HPM_P2
2023/06/03 00:00:53;;;;;;;10.60;6.07;;;;;;;19.95;72.25;100306.91;5093867;28;20045;-88
2023/06/03 00:03:20;;;;;;;11.80;6.40;;;;;;;19.99;72.43;100307.38;5093718;28;20101;-90
2023/06/03 00:05:45;;;;;;;9.50;5.72;;;;;;;20.03;72.80;100316.84;5092101;28;20020;-89
2023/06/03 00:08:11;;;;;;;35.15;7.30;;;;;;;19.99;72.68;100310.97;5079395;28;20043;-85
2023/06/03 00:10:36;;;;;;;22.27;7.65;;;;;;;19.98;72.66;100305.69;5070038;28;20527;-83
2023/06/03 00:13:02;;;;;;;18.67;7.15;;;;;;;19.92;73.26;100299.13;5071396;28;20082;-84
2023/06/03 00:15:27;;;;;;;19.02;7.32;;;;;;;19.84;73.87;100295.66;5070171;28;20025;-84
2023/06/03 00:17:53;;;;;;;24.52;8.52;;;;;;;19.77;74.00;100287.41;5072949;28;20750;-84
2023/06/03 00:20:18;;;;;;;24.40;8.38;;;;;;;19.65;74.17;100260.78;5074234;28;20028;-84
2023/06/03 00:22:45;;;;;;;18.63;7.00;;;;;;;19.77;74.44;100281.09;5079083;28;20032;-84
2023/06/03 00:25:11;;;;;;;13.18;6.93;;;;;;;19.91;74.68;100297.41;5088031;28;20072;-84
2023/06/03 00:27:38;;;;;;;15.38;6.75;;;;;;;19.93;74.36;100294.50;5087689;28;20087;-83
2023/06/03 00:30:05;;;;;;;13.38;6.70;;;;;;;19.95;74.65;100292.41;5071836;28;20476;-84
2023/06/03 00:32:31;;;;;;;18.73;7.55;;;;;;;19.96;75.04;100296.84;5070995;28;20111;-83
2023/06/03 00:34:57;;;;;;;15.77;6.45;;;;;;;19.96;74.73;100288.66;5070571;28;20100;-83
2023/06/03 00:37:22;;;;;;;16.65;6.50;;;;;;;20.03;74.26;100295.00;5070513;28;20028;-82
2023/06/03 00:39:48;;;;;;;12.70;7.18;;;;;;;20.06;74.10;100295.47;5070747;28;20484;-84
2023/06/03 00:42:13;;;;;;;13.27;5.95;;;;;;;20.02;73.68;100282.44;5069286;28;20499;-85
2023/06/03 00:44:39;;;;;;;12.30;7.78;;;;;;;20.09;73.09;100288.78;5068413;28;20053;-85
2023/06/03 00:47:05;;;;;;;15.40;8.38;;;;;;;20.09;72.60;100294.25;5082345;28;20036;-84
2023/06/03 00:49:31;;;;;;;10.95;5.90;;;;;;;19.93;71.56;100278.13;5074197;28;20028;-85
2023/06/03 00:51:58;;;;;;;19.67;7.07;;;;;;;19.95;70.56;100276.03;5068809;28;20078;-85
2023/06/03 00:54:26;;;;;;;15.90;5.40;;;;;;;19.87;68.26;100254.34;5068373;28;20043;-84
2023/06/03 00:56:52;;;;;;;11.77;5.50;;;;;;;19.95;66.54;100276.88;5068893;28;20471;-85
2023/06/03 00:59:17;;;;;;;17.42;5.88;;;;;;;19.84;65.34;100279.28;5068637;28;20107;-84
2023/06/03 01:01:43;;;;;;;10.55;5.90;;;;;;;19.75;64.27;100270.38;5068527;28;20029;-84
2023/06/03 01:04:25;;;;;;;24.95;5.72;;;;;;;19.79;63.18;100277.13;5068711;28;20044;-85
2023/06/03 01:07:12;;;;;;;15.48;6.05;;;;;;;19.82;62.84;100279.47;5069524;28;20048;-85
2023/06/03 01:10:05;;;;;;;17.23;6.50;;;;;;;19.65;62.92;100271.72;5077410;28;20031;-86
2023/06/03 01:12:48;;;;;;;21.50;6.57;;;;;;;19.69;62.63;100282.06;5081793;28;20029;-84
2023/06/03 01:15:21;;;;;;;15.10;7.30;;;;;;;19.70;64.29;100281.00;5072606;28;20043;-84
2023/06/03 01:17:50;;;;;;;22.00;7.85;;;;;;;19.59;66.10;100253.38;5072533;28;20521;-85
2023/06/03 01:20:17;;;;;;;15.82;8.10;;;;;;;19.65;67.74;100271.72;5077823;28;20028;-87
2023/06/03 01:22:49;;;;;;;11.25;7.53;;;;;;;19.58;67.31;100273.50;5087422;28;20031;-85
2023/06/03 01:25:16;;;;;;;15.98;9.68;;;;;;;19.64;68.68;100278.19;5082424;28;20119;-85
2023/06/03 01:27:45;;;;;;;18.48;8.93;;;;;;;19.61;69.25;100284.03;5070244;28;20449;-85
2023/06/03 01:30:14;;;;;;;17.67;9.20;;;;;;;19.41;69.82;100260.09;5069727;28;20101;-84
2023/06/03 01:32:48;;;;;;;19.80;8.57;;;;;;;19.47;70.20;100278.44;5070496;28;20085;-84
2023/06/03 01:35:14;;;;;;;15.60;8.05;;;;;;;19.39;68.94;100259.44;5070345;28;20565;-83
2023/06/03 01:37:40;;;;;;;17.90;8.00;;;;;;;19.48;65.53;100280.09;5070239;28;20033;-84
2023/06/03 01:40:07;;;;;;;19.17;6.32;;;;;;;19.46;64.54;100270.44;5069827;28;20036;-84
2023/06/03 01:42:33;;;;;;;10.68;6.22;;;;;;;19.45;63.86;100275.03;5068272;28;20028;-83
2023/06/03 01:45:01;;;;;;;65.78;12.93;;;;;;;19.43;63.84;100276.25;5070811;28;20159;-83
2023/06/03 01:47:27;;;;;;;23.45;7.90;;;;;;;19.29;64.83;100269.78;5069437;28;20032;-84
2023/06/03 01:49:56;;;;;;;18.83;7.55;;;;;;;19.39;65.59;100286.72;5068201;28;20036;-85
2023/06/03 01:52:21;;;;;;;27.80;8.77;;;;;;;19.27;66.17;100282.72;5070763;28;20075;-84
2023/06/03 01:54:47;;;;;;;19.60;7.97;;;;;;;19.15;67.58;100284.25;5070346;28;20449;-84
2023/06/03 01:57:13;;;;;;;16.02;7.50;;;;;;;19.20;67.71;100292.72;5071107;28;20098;-84
2023/06/03 01:59:38;;;;;;;29.80;11.48;;;;;;;19.19;68.95;100282.84;5070891;28;20086;-84
2023/06/03 02:02:04;;;;;;;20.63;10.60;;;;;;;19.27;70.75;100282.72;5073913;28;20021;-84
2023/06/03 02:04:29;;;;;;;24.63;10.90;;;;;;;19.10;70.96;100258.59;5075494;28;20056;-85
2023/06/03 02:07:00;;;;;;;23.92;9.57;;;;;;;19.17;71.29;100276.75;5075075;28;20131;-84
2023/06/03 02:09:27;;;;;;;18.27;9.70;;;;;;;19.11;71.48;100280.19;5075431;28;20037;-84
2023/06/03 02:12:13;;;;;;;28.27;9.95;;;;;;;18.99;72.00;100268.06;5074054;28;20033;-85
2023/06/03 02:14:38;;;;;;;33.17;8.80;;;;;;;18.92;71.65;100251.66;5074657;28;20063;-85
2023/06/03 02:17:04;;;;;;;17.15;9.85;;;;;;;18.97;71.00;100268.28;5081734;28;20033;-86
2023/06/03 02:19:30;;;;;;;24.85;7.95;;;;;;;19.02;70.15;100279.44;5092672;28;20032;-87
2023/06/03 02:21:57;;;;;;;17.05;7.45;;;;;;;18.95;67.71;100277.69;5085898;28;20031;-84
2023/06/03 02:24:23;;;;;;;15.43;7.22;;;;;;;18.90;67.61;100285.53;5075190;28;20033;-85
2023/06/03 02:26:52;;;;;;;18.15;7.20;;;;;;;18.85;65.62;100293.44;5082519;28;20028;-84
2023/06/03 02:29:22;;;;;;;17.38;8.27;;;;;;;18.81;67.40;100294.84;5087583;28;20032;-88
2023/06/03 02:31:51;;;;;;;19.48;9.52;;;;;;;18.77;69.78;100293.53;5077851;28;20104;-86
2023/06/03 02:34:16;;;;;;;26.20;10.65;;;;;;;18.74;71.10;100286.59;5072556;28;20055;-84
2023/06/03 02:36:43;;;;;;;24.52;9.63;;;;;;;18.70;70.15;100278.97;5073134;28;20415;-85
2023/06/03 02:39:10;;;;;;;19.63;10.90;;;;;;;18.87;69.90;100288.66;5071539;28;20032;-85
2023/06/03 02:41:36;;;;;;;23.67;9.75;;;;;;;18.86;69.93;100278.81;5070712;28;20554;-85
2023/06/03 02:44:05;;;;;;;18.95;8.13;;;;;;;18.76;69.48;100264.59;5070180;28;20040;-85
2023/06/03 02:46:31;;;;;;;38.83;9.90;;;;;;;18.76;68.88;100267.31;5070529;28;20124;-83
2023/06/03 02:48:57;;;;;;;30.80;8.98;;;;;;;18.91;67.18;100277.19;5070321;28;20041;-85
2023/06/03 02:51:22;;;;;;;20.67;8.32;;;;;;;18.83;66.20;100262.81;5072462;28;20035;-84
2023/06/03 02:53:49;;;;;;;22.77;8.80;;;;;;;18.87;65.80;100275.03;5071063;28;20029;-84
2023/06/03 02:56:14;;;;;;;32.20;9.18;;;;;;;18.94;65.22;100270.53;5072203;28;20032;-84
2023/06/03 02:58:40;;;;;;;19.27;8.68;;;;;;;18.98;64.39;100266.41;5071992;28;20146;-85
2023/06/03 03:01:05;;;;;;;21.48;8.77;;;;;;;19.02;63.72;100263.09;5072030;28;20093;-86
2023/06/03 03:03:36;;;;;;;40.70;10.75;;;;;;;18.85;63.73;100233.50;5072072;28;20372;-84
2023/06/03 03:06:06;;;;;;;24.42;8.50;;;;;;;19.08;62.30;100266.94;5073062;28;20043;-83
2023/06/03 03:08:32;;;;;;;25.65;7.90;;;;;;;19.12;60.83;100261.97;5074244;28;20032;-83
2023/06/03 03:10:57;;;;;;;16.00;6.93;;;;;;;19.21;59.48;100274.47;5080931;28;20027;-83
2023/06/03 03:13:23;;;;;;;16.73;7.07;;;;;;;19.11;59.21;100258.38;5100792;28;20020;-89
2023/06/03 03:15:48;;;;;;;20.55;6.97;;;;;;;19.16;59.23;100264.13;5112567;28;20054;-84
2023/06/03 03:18:14;;;;;;;14.48;6.43;;;;;;;19.22;59.72;100268.84;5103039;28;20078;-83
2023/06/03 03:20:40;;;;;;;20.95;8.35;;;;;;;19.23;59.77;100267.81;5095121;28;20051;-84
2023/06/03 03:23:06;;;;;;;18.80;8.02;;;;;;;19.25;60.29;100265.72;5091297;28;20067;-86
2023/06/03 03:25:33;;;;;;;24.08;8.88;;;;;;;19.31;61.34;100275.03;5080613;28;20548;-84
2023/06/03 03:27:58;;;;;;;26.60;8.80;;;;;;;19.35;62.66;100274.47;5069843;28;20041;-84
2023/06/03 03:30:24;;;;;;;32.90;9.43;;;;;;;19.43;63.29;100282.56;5070251;28;20037;-86
2023/06/03 03:32:49;;;;;;;33.47;10.77;;;;;;;19.44;63.56;100261.59;5071546;28;20032;-86
2023/06/03 03:35:18;;;;;;;29.90;10.00;;;;;;;19.65;64.20;100271.72;5071342;28;20041;-87
2023/06/03 03:37:44;;;;;;;25.27;8.75;;;;;;;19.58;65.11;100252.53;5081991;28;20037;-83
2023/06/03 03:40:20;;;;;;;25.65;9.60;;;;;;;19.63;64.70;100271.06;5076353;28;20656;-85
2023/06/03 03:42:51;;;;;;;35.33;11.10;;;;;;;19.54;64.74;100248.47;5070143;28;20111;-84
2023/06/03 03:45:34;;;;;;;25.50;10.23;;;;;;;19.64;64.68;100261.81;5052486;28;20057;-84
2023/06/03 03:48:02;;;;;;;46.15;11.75;;;;;;;19.68;64.65;100263.13;5069488;28;20033;-85
2023/06/03 03:50:47;;;;;;;27.40;9.98;;;;;;;19.83;65.02;100283.03;5077391;28;20040;-85
2023/06/03 03:53:15;;;;;;;32.30;10.13;;;;;;;19.66;65.62;100254.31;5089610;28;20047;-85
2023/06/03 03:55:41;;;;;;;43.10;10.40;;;;;;;19.86;65.81;100288.13;5092787;28;20496;-85
2023/06/03 03:58:14;;;;;;;38.65;10.88;;;;;;;19.83;65.62;100264.78;5109836;28;20036;-87
2023/06/03 04:00:41;;;;;;;51.97;11.27;;;;;;;19.94;64.98;100264.28;5110422;28;20085;-85
2023/06/03 04:03:09;;;;;;;29.45;10.07;;;;;;;20.03;65.17;100273.16;5111268;28;20024;-85
2023/06/03 04:05:36;;;;;;;24.90;10.70;;;;;;;20.11;64.44;100275.78;5111714;28;20063;-89
2023/06/03 04:08:03;;;;;;;36.00;9.88;;;;;;;20.07;64.45;100274.50;5098454;28;20047;-91
2023/06/03 04:10:28;;;;;;;31.33;10.50;;;;;;;20.09;64.35;100272.41;5140553;23;20081;-95
2023/06/03 04:12:54;;;;;;;36.22;11.27;;;;;;;19.99;64.81;100272.75;5036312;28;20037;-84
2023/06/03 04:15:24;;;;;;;41.08;13.88;;;;;;;19.80;65.99;100264.31;5038246;28;20030;-80
2023/06/03 04:17:50;;;;;;;29.25;12.18;;;;;;;19.88;66.51;100278.69;5011521;28;20104;-83
2023/06/03 04:20:41;;;;;;;51.67;14.02;;;;;;;20.07;66.78;100301.78;5010937;28;20030;-81
2023/06/03 04:23:14;;;;;;;52.40;14.25;;;;;;;20.02;66.96;100296.94;5017779;28;20103;-85
2023/06/03 04:25:41;;;;;;;36.05;13.80;;;;;;;20.07;67.15;100309.97;5017385;28;20038;-84
2023/06/03 04:28:07;;;;;;;32.92;14.43;;;;;;;20.14;66.62;100301.84;5011457;28;20026;-82
2023/06/03 04:30:35;;;;;;;35.85;15.90;;;;;;;20.01;65.11;100295.22;5011778;28;20084;-85
2023/06/03 04:33:00;;;;;;;37.33;16.38;;;;;;;20.15;64.21;100303.56;5011274;28;20021;-82
2023/06/03 04:35:26;;;;;;;45.33;16.33;;;;;;;20.29;64.65;100317.19;5010969;28;20401;-77
2023/06/03 04:37:51;;;;;;;28.92;15.82;;;;;;;20.35;64.44;100319.13;5009149;28;20084;-83
2023/06/03 04:40:17;;;;;;;44.92;17.48;;;;;;;20.35;64.48;100308.22;5009674;28;20034;-82
2023/06/03 04:42:43;;;;;;;31.88;17.02;;;;;;;20.48;64.05;100316.53;5009825;28;20544;-80
2023/06/03 04:45:09;;;;;;;27.00;15.30;;;;;;;20.59;63.84;100317.88;5010264;28;20061;-82
2023/06/03 04:47:35;;;;;;;27.70;13.95;;;;;;;20.63;62.47;100325.50;5010047;28;20061;-81
2023/06/03 04:50:04;;;;;;;35.03;14.18;;;;;;;20.60;62.20;100316.84;5009183;28;20034;-80
2023/06/03 04:52:31;;;;;;;32.10;13.45;;;;;;;20.63;61.30;100325.50;5010045;28;20026;-81
2023/06/03 04:54:56;;;;;;;30.73;15.00;;;;;;;20.80;61.41;100334.25;5010008;28;20041;-83
2023/06/03 04:57:22;;;;;;;34.05;14.23;;;;;;;20.82;61.52;100332.16;5019110;28;20563;-77
2023/06/03 04:59:47;;;;;;;72.20;18.50;;;;;;;20.93;61.51;100326.16;5029597;28;20041;-80
2023/06/03 05:02:13;;;;;;;46.45;17.60;;;;;;;20.99;62.00;100328.09;5029661;28;20030;-81
2023/06/03 05:04:41;;;;;;;57.60;15.15;;;;;;;21.13;62.19;100331.78;5031340;28;20437;-80
2023/06/03 05:07:06;;;;;;;63.60;18.20;;;;;;;21.26;62.22;100331.88;5030084;28;20108;-79
2023/06/03 05:09:32;;;;;;;107.47;24.15;;;;;;;21.19;62.24;100309.13;5035783;28;20100;-85
2023/06/03 05:11:58;;;;;;;37.50;15.85;;;;;;;21.43;62.08;100332.41;5037042;28;20033;-83
2023/06/03 05:14:23;;;;;;;120.05;23.77;;;;;;;21.50;62.15;100325.91;5027402;28;20082;-84
2023/06/03 05:16:49;;;;;;;57.53;17.73;;;;;;;21.76;61.70;100348.97;5009687;28;20041;-79
2023/06/03 05:19:14;;;;;;;49.75;16.75;;;;;;;21.86;61.73;100344.81;5026132;28;20034;-78
2023/06/03 05:21:40;;;;;;;61.72;15.43;;;;;;;21.99;61.72;100339.41;5026049;28;20631;-79
2023/06/03 05:24:05;;;;;;;47.92;17.00;;;;;;;22.26;61.62;100350.47;5025981;28;20037;-82
2023/06/03 05:26:31;;;;;;;27.95;14.57;;;;;;;22.30;62.55;100352.56;5025563;28;20045;-81
2023/06/03 05:28:56;;;;;;;30.75;11.38;;;;;;;22.47;63.37;100356.63;5025949;28;20496;-80
2023/06/03 05:31:22;;;;;;;33.83;13.35;;;;;;;22.72;63.10;100348.63;5026559;28;20919;-81
2023/06/03 05:33:47;;;;;;;31.13;11.18;;;;;;;23.00;63.24;100348.41;5025724;28;20117;-81
2023/06/03 05:36:13;;;;;;;20.10;8.85;;;;;;;23.06;64.82;100353.91;5026381;28;20033;-84
2023/06/03 05:38:38;;;;;;;23.00;8.07;;;;;;;23.30;64.23;100363.41;5026860;28;20417;-80
2023/06/03 05:41:04;;;;;;;16.23;7.93;;;;;;;23.34;63.70;100350.91;5039003;28;20037;-87
2023/06/03 05:43:30;;;;;;;15.25;8.30;;;;;;;23.53;64.01;100360.19;5030568;28;20045;-86
2023/06/03 05:45:58;;;;;;;30.30;7.43;;;;;;;23.48;61.45;100358.13;5030322;28;20125;-88
2023/06/03 05:48:24;;;;;;;16.50;8.07;;;;;;;23.61;60.50;100358.06;5030274;28;20022;-90
2023/06/03 05:50:51;;;;;;;22.90;7.05;;;;;;;23.69;59.71;100367.97;5028429;28;20504;-86
2023/06/03 05:53:22;;;;;;;19.48;7.38;;;;;;;23.78;58.14;100384.00;5028035;28;20052;-91
2023/06/03 05:55:51;;;;;;;26.17;8.25;;;;;;;23.35;57.31;100346.28;5030987;28;20034;-89
2023/06/03 05:58:19;;;;;;;22.15;7.25;;;;;;;23.49;57.69;100357.03;5031113;28;20021;-84
2023/06/03 06:00:45;;;;;;;25.77;7.03;;;;;;;23.64;57.51;100379.59;5032426;28;20047;-84
2023/06/03 06:03:13;;;;;;;15.82;6.72;;;;;;;23.53;57.01;100391.25;5039888;28;20073;-85
2023/06/03 06:05:38;;;;;;;17.25;6.53;;;;;;;23.53;57.11;100402.22;5052467;28;20063;-85
2023/06/03 06:08:04;;;;;;;32.88;8.63;;;;;;;23.40;57.30;100399.50;5039644;28;20100;-81
2023/06/03 06:10:29;;;;;;;35.13;8.55;;;;;;;23.37;56.79;100404.53;5031439;28;20049;-81
2023/06/03 06:12:55;;;;;;;28.63;8.75;;;;;;;23.25;56.32;100382.38;5028698;28;20073;-80
2023/06/03 06:15:21;;;;;;;37.20;7.95;;;;;;;23.33;55.96;100402.22;5028241;28;20041;-83
2023/06/03 06:17:47;;;;;;;34.25;7.72;;;;;;;23.23;55.25;100403.72;5028532;28;20030;-84
2023/06/03 06:20:12;;;;;;;39.40;7.35;;;;;;;23.23;54.77;100414.69;5028899;28;20026;-83
2023/06/03 06:22:38;;;;;;;28.45;7.00;;;;;;;23.38;55.03;100426.28;5029157;28;20489;-84
2023/06/03 06:25:05;;;;;;;26.45;7.13;;;;;;;23.38;54.15;100428.19;5028641;28;20099;-78
2023/06/03 06:27:30;;;;;;;31.70;6.60;;;;;;;23.44;53.70;100435.59;5028337;28;20029;-81
2023/06/03 06:29:56;;;;;;;16.08;7.30;;;;;;;23.45;50.19;100437.31;5027160;28;20051;-80
2023/06/03 06:32:24;;;;;;;26.70;6.72;;;;;;;23.40;51.27;100426.94;5028687;28;20036;-81
2023/06/03 06:34:50;;;;;;;19.83;8.02;;;;;;;23.50;55.25;100412.78;5028590;28;20483;-80
2023/06/03 06:37:18;;;;;;;20.88;7.35;;;;;;;23.49;59.04;100417.44;5026640;28;20068;-81
2023/06/03 06:39:51;;;;;;;20.38;6.85;;;;;;;23.45;63.67;100412.59;5027697;28;20079;-79
2023/06/03 06:42:31;;;;;;;13.38;7.10;;;;;;;23.35;67.04;100413.00;5028047;28;20485;-81
2023/06/03 06:44:56;;;;;;;22.38;7.85;;;;;;;23.42;68.27;100422.13;5028534;28;20045;-81
2023/06/03 06:47:26;;;;;;;19.13;6.70;;;;;;;23.35;68.02;100418.50;5028823;28;20036;-80
2023/06/03 06:49:57;;;;;;;16.23;7.43;;;;;;;23.50;68.35;100419.13;5032326;28;20117;-81
2023/06/03 06:52:23;;;;;;;17.02;6.80;;;;;;;23.53;68.22;100421.44;5035996;28;20099;-81
2023/06/03 06:54:49;;;;;;;27.35;7.97;;;;;;;23.53;71.60;100432.44;5036464;28;20033;-80
2023/06/03 06:57:23;;;;;;;35.78;8.07;;;;;;;23.71;72.62;100435.34;5040337;28;20044;-82
2023/06/03 06:59:52;;;;;;;15.63;6.70;;;;;;;23.78;72.73;100435.34;5054548;28;20114;-80
2023/06/03 07:02:18;;;;;;;10.05;6.10;;;;;;;23.74;72.09;100426.69;5050835;28;20038;-88
2023/06/03 07:04:44;;;;;;;13.40;6.00;;;;;;;23.76;71.59;100420.97;5043247;28;20091;-80
2023/06/03 07:07:09;;;;;;;34.10;7.40;;;;;;;23.83;69.13;100428.13;5035731;28;20017;-82
2023/06/03 07:09:35;;;;;;;19.27;6.47;;;;;;;23.98;67.30;100430.63;5033905;28;20103;-83
2023/06/03 07:12:01;;;;;;;24.33;7.55;;;;;;;23.78;69.75;100424.34;5035313;28;20429;-83
2023/06/03 07:14:32;;;;;;;93.07;10.82;;;;;;;23.74;68.86;100403.88;5033710;28;20033;-86
2023/06/03 07:16:58;;;;;;;28.30;6.95;;;;;;;23.91;67.12;100431.72;5032124;28;20029;-81
2023/06/03 07:19:27;;;;;;;10.93;7.20;;;;;;;24.19;66.79;100454.25;5031440;28;20536;-83
2023/06/03 07:21:53;;;;;;;15.80;7.35;;;;;;;24.25;67.03;100448.72;5032069;28;20465;-83
2023/06/03 07:24:18;;;;;;;17.95;7.22;;;;;;;24.47;66.70;100437.41;5035422;28;20052;-91
2023/06/03 07:26:45;;;;;;;21.50;6.40;;;;;;;24.35;66.14;100443.63;5036655;28;20036;-91
2023/06/03 07:29:10;;;;;;;18.50;6.93;;;;;;;24.42;65.27;100432.59;5036749;28;20034;-92
2023/06/03 07:31:36;;;;;;;14.13;6.57;;;;;;;24.64;65.00;100446.84;5042003;28;20473;-88
2023/06/03 07:34:02;;;;;;;13.98;6.22;;;;;;;24.61;64.82;100442.66;5033410;28;20037;-89
2023/06/03 07:36:28;;;;;;;19.48;6.93;;;;;;;24.76;64.73;100450.59;5032476;28;20413;-91
2023/06/03 07:39:04;;;;;;;29.65;6.85;;;;;;;25.03;64.02;100459.53;5030203;28;20604;-89
2023/06/03 07:41:45;;;;;;;12.25;6.45;;;;;;;25.19;63.47;100470.00;5029743;28;20064;-84
2023/06/03 07:44:12;;;;;;;28.10;6.15;;;;;;;25.44;62.77;100451.59;5031089;28;20033;-84
2023/06/03 07:46:43;;;;;;;10.60;7.35;;;;;;;25.73;61.18;100448.13;5030873;28;20040;-82
2023/06/03 07:49:14;;;;;;;13.77;6.82;;;;;;;25.45;61.58;100450.50;5032388;28;20021;-84
2023/06/03 07:51:47;;;;;;;17.40;5.53;;;;;;;25.43;60.96;100458.16;5033581;28;20026;-83
2023/06/03 07:54:13;;;;;;;16.52;6.88;;;;;;;25.50;61.58;100441.59;5034489;28;20029;-82
2023/06/03 07:56:39;;;;;;;15.48;5.70;;;;;;;25.71;60.80;100442.03;5032594;28;20374;-84
2023/06/03 07:59:06;;;;;;;26.38;6.78;;;;;;;25.88;59.56;100456.88;5046113;28;20036;-82
2023/06/03 08:01:33;;;;;;;32.65;7.45;;;;;;;25.83;59.87;100459.47;5047559;28;20025;-83
2023/06/03 08:04:26;;;;;;;17.15;6.13;;;;;;;25.88;58.74;100456.88;5050924;28;20428;-85
2023/06/03 08:06:52;;;;;;;17.30;7.03;;;;;;;25.49;60.52;100440.75;4991991;28;20101;-82
2023/06/03 08:09:32;;;;;;;25.58;7.03;;;;;;;25.60;60.36;100453.78;4997276;28;20085;-83
2023/06/03 08:12:01;;;;;;;19.80;7.88;;;;;;;25.60;61.07;100459.28;4990356;28;20048;-81
2023/06/03 08:14:29;;;;;;;22.90;7.07;;;;;;;25.36;60.80;100443.59;4988349;28;20470;-80
2023/06/03 08:17:01;;;;;;;20.50;7.25;;;;;;;25.63;60.74;100455.22;4987810;28;20037;-77
2023/06/03 08:19:26;;;;;;;12.15;6.90;;;;;;;25.77;60.21;100449.38;4987705;28;20046;-78
2023/06/03 08:21:52;;;;;;;8.55;6.00;;;;;;;25.68;59.54;100439.72;4987830;28;20034;-89
2023/06/03 08:24:17;;;;;;;13.93;6.75;;;;;;;25.89;58.90;100453.06;4988934;28;20210;-89
2023/06/03 08:26:45;;;;;;;25.50;6.35;;;;;;;25.56;58.71;100441.53;4988755;28;20057;-82
2023/06/03 08:29:11;;;;;;;12.98;5.25;;;;;;;25.60;59.01;100431.72;4988773;28;20085;-83
2023/06/03 08:31:36;;;;;;;9.35;6.28;;;;;;;25.68;59.65;100439.72;4997315;28;20045;-82
2023/06/03 08:34:03;;;;;;;22.77;6.75;;;;;;;25.80;59.40;100446.16;4992252;28;20477;-82
2023/06/03 08:36:29;;;;;;;10.85;5.45;;;;;;;25.67;58.84;100446.28;4971920;28;20058;-83
2023/06/03 08:38:55;;;;;;;12.73;5.65;;;;;;;25.74;58.75;100458.09;4988055;28;20121;-84
2023/06/03 08:41:25;;;;;;;16.83;8.00;;;;;;;25.32;59.83;100447.84;4987668;28;20037;-83
2023/06/03 08:43:53;;;;;;;29.80;7.22;;;;;;;25.48;58.92;100455.53;5008656;28;20037;-83
2023/06/03 08:47:03;;;;;;;19.05;5.65;;;;;;;25.65;57.93;100461.38;5029849;28;20034;-83
2023/06/03 08:50:00;;;;;;;22.10;6.32;;;;;;;25.45;57.55;100456.00;5029644;28;20053;-83
2023/06/03 08:52:29;;;;;;;17.40;8.40;;;;;;;25.32;57.33;100456.09;5031549;28;20544;-83
2023/06/03 08:54:59;;;;;;;16.33;9.23;;;;;;;25.40;58.92;100464.97;5043509;28;20557;-82
2023/06/03 08:57:31;;;;;;;9.60;5.70;;;;;;;25.28;59.93;100466.75;5045667;28;20022;-83
2023/06/03 09:00:00;;;;;;;23.40;5.63;;;;;;;25.24;60.13;100456.41;5033912;28;20033;-83
2023/06/03 09:02:27;;;;;;;10.63;6.28;;;;;;;25.24;61.33;100453.66;5029876;28;20087;-83
2023/06/03 09:04:54;;;;;;;12.63;5.57;;;;;;;25.26;61.11;100448.75;5029569;28;20025;-81
2023/06/03 09:07:20;;;;;;;11.43;6.35;;;;;;;25.48;60.38;100452.78;5029173;28;20029;-82
2023/06/03 09:09:50;;;;;;;20.38;8.70;;;;;;;25.80;59.36;100465.44;5028447;28;20049;-82
2023/06/03 09:12:16;;;;;;;14.70;4.78;;;;;;;25.79;57.99;100466.50;5031219;28;20029;-81
2023/06/03 09:14:43;;;;;;;21.45;5.63;;;;;;;25.81;57.71;100455.25;5028551;28;20029;-83
2023/06/03 09:17:09;;;;;;;17.13;5.25;;;;;;;25.74;57.57;100455.34;5028995;28;20025;-81
2023/06/03 09:19:35;;;;;;;14.23;6.00;;;;;;;25.83;57.00;100470.50;5029287;28;20370;-83
2023/06/03 09:22:02;;;;;;;15.50;5.78;;;;;;;25.92;57.28;100468.28;5029490;28;20445;-82
2023/06/03 09:24:27;;;;;;;15.95;6.13;;;;;;;25.79;57.42;100465.66;5028865;28;20101;-82
2023/06/03 09:26:53;;;;;;;15.77;5.72;;;;;;;26.06;56.40;100464.31;5028331;28;20033;-82
2023/06/03 09:29:20;;;;;;;17.65;6.57;;;;;;;25.97;57.11;100465.69;5028931;28;20045;-83
2023/06/03 09:31:47;;;;;;;15.18;5.63;;;;;;;25.97;56.10;100476.69;5029877;28;20033;-83
2023/06/03 09:34:14;;;;;;;36.33;7.95;;;;;;;26.13;55.89;100476.09;5029530;28;20064;-83
2023/06/03 09:36:48;;;;;;;11.00;5.22;;;;;;;26.14;56.23;100463.16;5031141;28;20037;-81
2023/06/03 09:39:17;;;;;;;12.27;5.43;;;;;;;26.19;57.07;100477.13;5030084;28;20071;-82
2023/06/03 09:41:43;;;;;;;23.77;6.22;;;;;;;25.92;54.61;100458.09;5029528;28;20054;-83
2023/06/03 09:44:10;;;;;;;34.08;7.15;;;;;;;25.78;52.20;100481.34;5030806;28;20072;-83
2023/06/03 09:46:36;;;;;;;14.00;5.18;;;;;;;25.64;53.26;100476.19;5030870;28;20081;-82
2023/06/03 09:49:08;;;;;;;8.63;3.90;;;;;;;25.63;53.46;100486.38;5030487;28;20434;-84
2023/06/03 09:51:43;;;;;;;13.45;5.88;;;;;;;25.73;54.17;100481.19;5040101;28;20677;-82
2023/06/03 09:54:22;;;;;;;12.63;5.47;;;;;;;25.69;54.87;100474.44;5045101;28;20034;-81
2023/06/03 09:56:48;;;;;;;10.93;5.97;;;;;;;25.59;56.42;100482.41;5030845;28;20094;-82
2023/06/03 09:59:25;;;;;;;29.05;5.88;;;;;;;25.66;55.75;100474.06;5030069;28;20113;-83
2023/06/03 10:01:53;;;;;;;39.00;6.90;;;;;;;25.77;55.04;100482.44;5029655;28;20038;-83
2023/06/03 10:04:44;;;;;;;8.90;5.07;;;;;;;25.74;54.90;100487.56;5029755;28;20041;-83
2023/06/03 10:07:12;;;;;;;22.55;5.85;;;;;;;25.79;55.71;100482.19;4970771;28;20046;-83
2023/06/03 10:09:38;;;;;;;17.55;5.53;;;;;;;25.77;56.06;100476.94;4971106;28;20162;-82
2023/06/03 10:12:06;;;;;;;13.88;4.90;;;;;;;25.83;54.73;100480.69;4987555;28;20445;-83
2023/06/03 10:14:31;;;;;;;25.42;5.95;;;;;;;25.75;55.09;100473.53;4987509;28;20042;-82
2023/06/03 10:17:07;;;;;;;14.65;5.78;;;;;;;25.92;55.96;100493.09;4987022;28;20026;-82
2023/06/03 10:19:38;;;;;;;12.60;5.00;;;;;;;26.06;56.24;100494.63;4987134;28;20082;-82
2023/06/03 10:22:05;;;;;;;17.85;6.20;;;;;;;26.21;56.53;100494.28;4988783;28;20162;-83
2023/06/03 10:24:33;;;;;;;19.42;6.00;;;;;;;26.18;56.68;100495.56;4991069;28;20038;-83
2023/06/03 10:27:00;;;;;;;16.60;5.30;;;;;;;25.81;58.83;100485.56;4991567;28;20117;-84
2023/06/03 10:29:26;;;;;;;13.60;5.18;;;;;;;25.61;59.04;100483.00;4992054;28;20037;-83
2023/06/03 10:31:54;;;;;;;10.35;6.20;;;;;;;25.68;58.71;100486.56;4991615;28;20134;-83
2023/06/03 10:34:20;;;;;;;15.15;4.85;;;;;;;25.63;59.73;100497.38;4976481;28;20034;-82
2023/06/03 10:36:56;;;;;;;37.38;8.15;;;;;;;25.81;58.57;100474.53;4998374;28;20097;-82
2023/06/03 10:39:24;;;;;;;6.28;4.75;;;;;;;26.03;58.76;100485.97;4976520;28;20062;-83
2023/06/03 10:41:53;;;;;;;18.77;5.07;;;;;;;26.05;58.14;100487.44;4993876;28;20030;-82
2023/06/03 10:44:19;;;;;;;17.17;5.80;;;;;;;26.15;57.36;100479.50;5013963;28;20048;-83
2023/06/03 10:47:15;;;;;;;16.10;4.97;;;;;;;26.23;58.08;100489.38;5032921;28;20026;-83
2023/06/03 10:49:46;;;;;;;20.90;6.10;;;;;;;26.20;59.13;100498.13;5048299;28;20105;-82
2023/06/03 10:52:49;;;;;;;10.48;5.20;;;;;;;26.31;57.70;100486.31;5042511;28;20033;-82
2023/06/03 10:55:25;;;;;;;;;;;;;;;26.22;58.20;100487.69;5034169;28;20033;-82
2023/06/03 10:58:05;;;;;;;10.25;5.63;;;;;;;26.15;58.51;100495.16;5037607;28;19995;-86
2023/06/03 11:00:54;;;;;;;10.07;4.32;;;;;;;25.97;59.89;100490.47;5040936;28;20024;-86
2023/06/03 11:03:21;;;;;;;22.30;5.43;;;;;;;25.97;60.24;100491.31;5037575;28;20026;-87
2023/06/03 11:05:47;;;;;;;13.75;4.90;;;;;;;25.98;60.44;100501.28;5033541;28;20041;-85
2023/06/03 11:08:13;;;;;;;9.98;5.70;;;;;;;25.79;60.46;100485.78;5033470;28;20046;-86
2023/06/03 11:10:43;;;;;;;25.05;7.75;;;;;;;25.90;59.90;100486.97;5031636;28;20050;-86
2023/06/03 11:13:11;;;;;;;15.20;5.53;;;;;;;26.14;60.11;100499.84;5034028;28;20037;-91
2023/06/03 11:16:05;;;;;;;30.70;6.88;;;;;;;26.16;59.83;100507.91;5034399;28;20030;-86
2023/06/03 11:18:33;;;;;;;16.67;5.45;;;;;;;26.14;60.42;100505.38;5034341;28;20395;-86
2023/06/03 11:20:59;;;;;;;18.70;5.95;;;;;;;25.99;60.98;100494.69;5036718;28;20037;-89
2023/06/03 11:23:44;;;;;;;11.82;4.65;;;;;;;26.03;61.93;100502.50;5038640;28;20033;-87